Time,TemperatureF,DewpointF,PressureIn,WindDirection,WindDirectionDegrees,WindSpeedMPH,WindSpeedGustMPH,Humidity,HourlyPrecipIn,Conditions,Clouds,dailyrainin,SolarRadiationWatts/m^2,SoftwareType,DateUTC
2013-02-20 00:02:00,10.5,1.5,30.45,NNW,340,0.0,6.0,66,0.00,,,0.00,0,HR-IXPWINDi_r2_v1.2.,2013-02-20 06:02:00,
2013-02-20 00:08:00,10.4,1.7,30.45,WNW,296,5.0,6.0,67,0.00,,,0.00,0,HR-IXPWINDi_r2_v1.2.,2013-02-20 06:08:00,
2013-02-20 00:13:00,10.2,1.8,30.45,NNE,23,5.0,6.0,68,0.00,,,0.00,0,HR-IXPWINDi_r2_v1.2.,2013-02-20 06:13:00,
2013-02-20 00:18:00,10.2,1.8,30.45,NNE,27,3.0,6.0,68,0.00,,,0.00,0,HR-IXPWINDi_r2_v1.2.,2013-02-20 06:18:00,
2013-02-20 00:23:00,10.1,1.7,30.45,NNE,30,0.0,6.0,68,0.00,,,0.00,0,HR-IXPWINDi_r2_v1.2.,2013-02-20 06:23:00,
2013-02-20 00:28:00,9.9,1.6,30.45,WNW,302,0.0,5.0,68,0.00,,,0.00,0,HR-IXPWINDi_r2_v1.2.,2013-02-20 06:28:00,
2013-02-20 00:34:00,9.7,1.7,30.46,NNE,18,0.0,5.0,69,0.00,,,0.00,0,HR-IXPWINDi_r2_v1.2.,2013-02-20 06:34:00,
2013-02-20 00:39:00,9.5,1.5,30.45,NNE,22,5.0,7.0,69,0.00,,,0.00,0,HR-IXPWINDi_r2_v1.2.,2013-02-20 06:39:00,
2013-02-20 00:44:00,9.5,1.8,30.45,North,11,3.0,7.0,70,0.00,,,0.00,0,HR-IXPWINDi_r2_v1.2.,2013-02-20 06:44:00,
2013-02-20 00:49:00,9.4,1.7,30.45,NNE,20,2.0,6.0,70,0.00,,,0.00,0,HR-IXPWINDi_r2_v1.2.,2013-02-20 06:49:00,
2013-02-20 00:55:00,9.3,1.6,30.45,North,5,4.0,5.0,70,0.00,,,0.00,0,HR-IXPWINDi_r2_v1.2.,2013-02-20 06:55:00,
2013-02-20 01:00:00,9.3,1.9,30.45,NNE,24,0.0,5.0,71,0.00,,,0.00,0,HR-IXPWINDi_r2_v1.2.,2013-02-20 07:00:00,
2013-02-20 01:05:00,9.1,1.7,30.46,NNE,24,3.0,5.0,71,0.00,,,0.00,0,HR-IXPWINDi_r2_v1.2.,2013-02-20 07:05:00,
2013-02-20 01:10:00,9.0,1.6,30.46,NNW,327,1.0,5.0,71,0.00,,,0.00,0,HR-IXPWINDi_r2_v1.2.,2013-02-20 07:10:00,
2013-02-20 01:15:00,9.0,1.9,30.46,NE,37,4.0,5.0,72,0.00,,,0.00,0,HR-IXPWINDi_r2_v1.2.,2013-02-20 07:15:00,
2013-02-20 01:21:00,8.9,1.8,30.46,NNE,30,1.0,5.0,72,0.00,,,0.00,0,HR-IXPWINDi_r2_v1.2.,2013-02-20 07:21:00,
2013-02-20 01:26:00,8.9,1.8,30.46,NNE,13,2.0,4.0,72,0.00,,,0.00,0,HR-IXPWINDi_r2_v1.2.,2013-02-20 07:26:00,
2013-02-20 01:31:00,8.9,2.1,30.46,NNE,30,3.0,5.0,73,0.00,,,0.00,0,HR-IXPWINDi_r2_v1.2.,2013-02-20 07:31:00,
2013-02-20 01:36:00,8.9,2.1,30.46,NNE,28,5.0,6.0,73,0.00,,,0.00,0,HR-IXPWINDi_r2_v1.2.,2013-02-20 07:36:00,
2013-02-20 01:42:00,8.9,2.1,30.46,NNE,13,4.0,6.0,73,0.00,,,0.00,0,HR-IXPWINDi_r2_v1.2.,2013-02-20 07:42:00,
2013-02-20 01:47:00,8.8,1.7,30.46,NNE,30,2.0,6.0,72,0.00,,,0.00,0,HR-IXPWINDi_r2_v1.2.,2013-02-20 07:47:00,
2013-02-20 01:52:00,8.8,1.7,30.46,NNE,19,3.0,5.0,72,0.00,,,0.00,0,HR-IXPWINDi_r2_v1.2.,2013-02-20 07:52:00,
2013-02-20 01:57:00,8.7,1.6,30.46,NNE,12,1.0,5.0,72,0.00,,,0.00,0,HR-IXPWINDi_r2_v1.2.,2013-02-20 07:57:00,
2013-02-20 02:05:00,8.6,1.5,30.46,NNE,28,4.0,6.0,72,0.00,,,0.00,0,HR-IXPWINDi_r2_v1.2.,2013-02-20 08:05:00,
2013-02-20 02:10:00,8.5,1.7,30.46,NNE,31,3.0,7.0,73,0.00,,,0.00,0,HR-IXPWINDi_r2_v1.2.,2013-02-20 08:10:00,
2013-02-20 02:15:00,8.4,1.6,30.46,ENE,65,3.0,7.0,73,0.00,,,0.00,0,HR-IXPWINDi_r2_v1.2.,2013-02-20 08:15:00,
2013-02-20 02:21:00,8.3,1.2,30.47,NNE,20,2.0,7.0,72,0.00,,,0.00,0,HR-IXPWINDi_r2_v1.2.,2013-02-20 08:21:00,
2013-02-20 02:26:00,8.3,1.2,30.46,NNE,32,4.0,6.0,72,0.00,,,0.00,0,HR-IXPWINDi_r2_v1.2.,2013-02-20 08:26:00,
2013-02-20 02:31:00,8.2,1.1,30.47,NNE,29,3.0,6.0,72,0.00,,,0.00,0,HR-IXPWINDi_r2_v1.2.,2013-02-20 08:31:00,
2013-02-20 02:36:00,8.1,1.3,30.46,NNE,17,4.0,6.0,73,0.00,,,0.00,0,HR-IXPWINDi_r2_v1.2.,2013-02-20 08:36:00,
2013-02-20 02:41:00,8.0,1.2,30.46,NNE,30,1.0,6.0,73,0.00,,,0.00,0,HR-IXPWINDi_r2_v1.2.,2013-02-20 08:41:00,
2013-02-20 02:46:00,7.8,1.1,30.45,NNE,23,3.0,6.0,73,0.00,,,0.00,0,HR-IXPWINDi_r2_v1.2.,2013-02-20 08:46:00,
2013-02-20 02:52:00,7.7,1.0,30.46,NE,39,1.0,6.0,73,0.00,,,0.00,0,HR-IXPWINDi_r2_v1.2.,2013-02-20 08:52:00,
2013-02-20 02:57:00,7.6,0.9,30.45,NE,42,1.0,6.0,73,0.00,,,0.00,0,HR-IXPWINDi_r2_v1.2.,2013-02-20 08:57:00,
2013-02-20 03:02:00,7.5,1.1,30.45,North,11,1.0,5.0,74,0.00,,,0.00,0,HR-IXPWINDi_r2_v1.2.,2013-02-20 09:02:00,
2013-02-20 03:07:00,7.4,1.0,30.45,NNE,22,4.0,6.0,74,0.00,,,0.00,0,HR-IXPWINDi_r2_v1.2.,2013-02-20 09:07:00,
2013-02-20 03:12:00,7.3,0.9,30.45,NNE,22,2.0,6.0,74,0.00,,,0.00,0,HR-IXPWINDi_r2_v1.2.,2013-02-20 09:12:00,
2013-02-20 03:17:00,7.3,0.9,30.44,NNE,28,2.0,6.0,74,0.00,,,0.00,0,HR-IXPWINDi_r2_v1.2.,2013-02-20 09:17:00,
2013-02-20 03:22:00,7.1,0.7,30.43,NE,34,2.0,6.0,74,0.00,,,0.00,0,HR-IXPWINDi_r2_v1.2.,2013-02-20 09:22:00,
2013-02-20 03:28:00,7.0,0.6,30.44,NE,51,5.0,7.0,74,0.00,,,0.00,0,HR-IXPWINDi_r2_v1.2.,2013-02-20 09:28:00,
2013-02-20 03:33:00,7.1,0.7,30.44,NNE,25,4.0,9.0,74,0.00,,,0.00,0,HR-IXPWINDi_r2_v1.2.,2013-02-20 09:33:00,
2013-02-20 03:38:00,7.2,0.8,30.43,NE,45,3.0,9.0,74,0.00,,,0.00,0,HR-IXPWINDi_r2_v1.2.,2013-02-20 09:38:00,
2013-02-20 03:43:00,7.1,0.7,30.43,NE,49,5.0,9.0,74,0.00,,,0.00,0,HR-IXPWINDi_r2_v1.2.,2013-02-20 09:43:00,
2013-02-20 03:48:00,7.1,0.4,30.43,NNE,17,6.0,9.0,73,0.00,,,0.00,0,HR-IXPWINDi_r2_v1.2.,2013-02-20 09:48:00,
2013-02-20 03:53:00,7.0,0.0,30.43,NE,53,5.0,10.0,72,0.00,,,0.00,0,HR-IXPWINDi_r2_v1.2.,2013-02-20 09:53:00,
2013-02-20 03:59:00,6.9,0.2,30.43,ENE,63,4.0,10.0,73,0.00,,,0.00,0,HR-IXPWINDi_r2_v1.2.,2013-02-20 09:59:00,
2013-02-20 04:04:00,6.8,0.1,30.43,NE,53,2.0,9.0,73,0.00,,,0.00,0,HR-IXPWINDi_r2_v1.2.,2013-02-20 10:04:00,
2013-02-20 04:09:00,6.7,0.0,30.43,NNE,28,1.0,9.0,73,0.00,,,0.00,0,HR-IXPWINDi_r2_v1.2.,2013-02-20 10:09:00,
2013-02-20 04:14:00,6.8,0.4,30.43,ENE,59,4.0,7.0,74,0.00,,,0.00,0,HR-IXPWINDi_r2_v1.2.,2013-02-20 10:14:00,
2013-02-20 04:20:00,6.6,0.0,30.43,NE,46,4.0,8.0,73,0.00,,,0.00,0,HR-IXPWINDi_r2_v1.2.,2013-02-20 10:20:00,
2013-02-20 04:25:00,6.5,0.0,30.42,NE,47,5.0,9.0,73,0.00,,,0.00,0,HR-IXPWINDi_r2_v1.2.,2013-02-20 10:25:00,
2013-02-20 04:30:00,6.5,0.0,30.43,ENE,58,4.0,9.0,73,0.00,,,0.00,0,HR-IXPWINDi_r2_v1.2.,2013-02-20 10:30:00,
2013-02-20 04:35:00,6.6,0.2,30.43,NNE,25,4.0,8.0,74,0.00,,,0.00,0,HR-IXPWINDi_r2_v1.2.,2013-02-20 10:35:00,
2013-02-20 04:40:00,6.5,0.1,30.43,NE,39,6.0,8.0,74,0.00,,,0.00,0,HR-IXPWINDi_r2_v1.2.,2013-02-20 10:40:00,
2013-02-20 04:46:00,6.4,-0.1,30.42,ENE,58,7.0,8.0,73,0.00,,,0.00,0,HR-IXPWINDi_r2_v1.2.,2013-02-20 10:46:00,
2013-02-20 04:51:00,6.4,-0.1,30.42,NE,46,5.0,8.0,73,0.00,,,0.00,0,HR-IXPWINDi_r2_v1.2.,2013-02-20 10:51:00,
2013-02-20 04:56:00,6.4,0.0,30.42,NE,51,4.0,8.0,74,0.00,,,0.00,0,HR-IXPWINDi_r2_v1.2.,2013-02-20 10:56:00,
2013-02-20 05:01:00,6.3,-0.2,30.42,NE,47,3.0,8.0,73,0.00,,,0.00,0,HR-IXPWINDi_r2_v1.2.,2013-02-20 11:01:00,
2013-02-20 05:07:00,6.2,-0.3,30.42,NNE,28,6.0,8.0,73,0.00,,,0.00,0,HR-IXPWINDi_r2_v1.2.,2013-02-20 11:07:00,
2013-02-20 05:12:00,6.2,-0.6,30.42,NE,56,4.0,9.0,72,0.00,,,0.00,0,HR-IXPWINDi_r2_v1.2.,2013-02-20 11:12:00,
2013-02-20 05:17:00,6.2,-0.3,30.42,NE,53,4.0,9.0,73,0.00,,,0.00,0,HR-IXPWINDi_r2_v1.2.,2013-02-20 11:17:00,
2013-02-20 05:22:00,6.1,-0.7,30.42,NNE,24,4.0,9.0,72,0.00,,,0.00,0,HR-IXPWINDi_r2_v1.2.,2013-02-20 11:22:00,
2013-02-20 05:27:00,6.0,-0.8,30.42,ENE,60,4.0,9.0,72,0.00,,,0.00,0,HR-IXPWINDi_r2_v1.2.,2013-02-20 11:27:00,
2013-02-20 05:33:00,5.9,-0.9,30.42,NE,46,7.0,7.0,72,0.00,,,0.00,0,HR-IXPWINDi_r2_v1.2.,2013-02-20 11:33:00,
2013-02-20 05:38:00,6.0,-0.5,30.42,NE,55,5.0,7.0,73,0.00,,,0.00,0,HR-IXPWINDi_r2_v1.2.,2013-02-20 11:38:00,
2013-02-20 05:43:00,5.9,-0.6,30.42,NE,53,6.0,7.0,73,0.00,,,0.00,0,HR-IXPWINDi_r2_v1.2.,2013-02-20 11:43:00,
2013-02-20 05:48:00,5.8,-1.0,30.41,NE,35,5.0,9.0,72,0.00,,,0.00,0,HR-IXPWINDi_r2_v1.2.,2013-02-20 11:48:00,
2013-02-20 05:54:00,5.8,-1.0,30.41,ENE,58,2.0,9.0,72,0.00,,,0.00,0,HR-IXPWINDi_r2_v1.2.,2013-02-20 11:54:00,
2013-02-20 05:59:00,5.8,-0.7,30.41,NE,49,5.0,9.0,73,0.00,,,0.00,0,HR-IXPWINDi_r2_v1.2.,2013-02-20 11:59:00,
2013-02-20 06:04:00,5.7,-0.8,30.41,NE,42,3.0,8.0,73,0.00,,,0.00,0,HR-IXPWINDi_r2_v1.2.,2013-02-20 12:04:00,
2013-02-20 06:09:00,5.7,-0.8,30.42,ENE,64,3.0,7.0,73,0.00,,,0.00,0,HR-IXPWINDi_r2_v1.2.,2013-02-20 12:09:00,
2013-02-20 06:14:00,5.7,-0.8,30.42,ENE,59,3.0,6.0,73,0.00,,,0.00,0,HR-IXPWINDi_r2_v1.2.,2013-02-20 12:14:00,
2013-02-20 06:20:00,5.7,-0.8,30.42,NE,56,2.0,6.0,73,0.00,,,0.00,0,HR-IXPWINDi_r2_v1.2.,2013-02-20 12:20:00,
2013-02-20 06:25:00,5.6,-0.9,30.42,NE,55,1.0,6.0,73,0.00,,,0.00,0,HR-IXPWINDi_r2_v1.2.,2013-02-20 12:25:00,
2013-02-20 06:30:00,5.6,-1.2,30.42,NE,51,5.0,7.0,72,0.00,,,0.00,0,HR-IXPWINDi_r2_v1.2.,2013-02-20 12:30:00,
2013-02-20 06:35:00,5.6,-1.2,30.42,NE,55,5.0,9.0,72,0.00,,,0.00,0,HR-IXPWINDi_r2_v1.2.,2013-02-20 12:35:00,
2013-02-20 06:40:00,5.6,-0.9,30.42,ENE,65,3.0,9.0,73,0.00,,,0.00,0,HR-IXPWINDi_r2_v1.2.,2013-02-20 12:40:00,
2013-02-20 06:45:00,5.5,-1.2,30.42,ENE,67,8.0,8.0,72,0.00,,,0.00,0,HR-IXPWINDi_r2_v1.2.,2013-02-20 12:45:00,
2013-02-20 06:50:00,5.5,-1.2,30.43,NE,56,6.0,9.0,72,0.00,,,0.00,0,HR-IXPWINDi_r2_v1.2.,2013-02-20 12:50:00,
2013-02-20 06:56:00,5.5,-1.2,30.43,East,80,2.0,9.0,72,0.00,,,0.00,0,HR-IXPWINDi_r2_v1.2.,2013-02-20 12:56:00,
2013-02-20 07:01:00,5.4,-1.3,30.43,ENE,69,4.0,8.0,72,0.00,,,0.00,0,HR-IXPWINDi_r2_v1.2.,2013-02-20 13:01:00,
2013-02-20 07:06:00,5.3,-1.4,30.44,ENE,58,3.0,7.0,72,0.00,,,0.00,0,HR-IXPWINDi_r2_v1.2.,2013-02-20 13:06:00,
2013-02-20 07:11:00,5.4,-1.3,30.43,ENE,66,2.0,6.0,72,0.00,,,0.00,5,HR-IXPWINDi_r2_v1.2.,2013-02-20 13:11:00,
2013-02-20 07:16:00,5.3,-1.4,30.43,ENE,66,3.0,6.0,72,0.00,,,0.00,9,HR-IXPWINDi_r2_v1.2.,2013-02-20 13:16:00,
2013-02-20 07:21:00,5.3,-1.4,30.43,ENE,63,3.0,6.0,72,0.00,,,0.00,12,HR-IXPWINDi_r2_v1.2.,2013-02-20 13:21:00,
2013-02-20 07:27:00,5.3,-1.2,30.43,ENE,63,4.0,6.0,73,0.00,,,0.00,18,HR-IXPWINDi_r2_v1.2.,2013-02-20 13:27:00,
2013-02-20 07:32:00,5.3,-1.2,30.43,NE,42,4.0,6.0,73,0.00,,,0.00,28,HR-IXPWINDi_r2_v1.2.,2013-02-20 13:32:00,
2013-02-20 07:37:00,5.2,-1.5,30.43,ENE,60,8.0,10.0,72,0.00,,,0.00,28,HR-IXPWINDi_r2_v1.2.,2013-02-20 13:37:00,
2013-02-20 07:42:00,5.1,-1.6,30.43,NE,55,2.0,10.0,72,0.00,,,0.00,37,HR-IXPWINDi_r2_v1.2.,2013-02-20 13:42:00,
2013-02-20 07:48:00,5.4,-0.8,30.44,NE,49,5.0,9.0,74,0.00,,,0.00,53,HR-IXPWINDi_r2_v1.2.,2013-02-20 13:48:00,
2013-02-20 07:53:00,5.5,-1.0,30.45,NNE,31,4.0,8.0,73,0.00,,,0.00,77,HR-IXPWINDi_r2_v1.2.,2013-02-20 13:53:00,
2013-02-20 07:58:00,5.6,-0.9,30.45,ENE,71,4.0,9.0,73,0.00,,,0.00,107,HR-IXPWINDi_r2_v1.2.,2013-02-20 13:58:00,
2013-02-20 08:03:00,6.0,-0.2,30.44,NE,53,5.0,9.0,74,0.00,,,0.00,135,HR-IXPWINDi_r2_v1.2.,2013-02-20 14:03:00,
2013-02-20 08:08:00,6.2,-0.3,30.45,NE,55,4.0,8.0,73,0.00,,,0.00,167,HR-IXPWINDi_r2_v1.2.,2013-02-20 14:08:00,
2013-02-20 08:13:00,6.4,-0.1,30.46,ENE,69,3.0,7.0,73,0.00,,,0.00,185,HR-IXPWINDi_r2_v1.2.,2013-02-20 14:13:00,
2013-02-20 08:18:00,6.8,0.4,30.46,ENE,74,2.0,7.0,74,0.00,,,0.00,171,HR-IXPWINDi_r2_v1.2.,2013-02-20 14:18:00,
2013-02-20 08:24:00,7.0,0.3,30.46,East,80,5.0,6.0,73,0.00,,,0.00,160,HR-IXPWINDi_r2_v1.2.,2013-02-20 14:24:00,
2013-02-20 08:29:00,6.9,0.0,30.46,East,84,2.0,8.0,72,0.00,,,0.00,171,HR-IXPWINDi_r2_v1.2.,2013-02-20 14:29:00,
2013-02-20 08:34:00,6.8,0.0,30.45,ENE,75,5.0,10.0,72,0.00,,,0.00,179,HR-IXPWINDi_r2_v1.2.,2013-02-20 14:34:00,
2013-02-20 08:39:00,7.1,0.4,30.45,East,88,6.0,10.0,73,0.00,,,0.00,186,HR-IXPWINDi_r2_v1.2.,2013-02-20 14:39:00,
2013-02-20 08:45:00,7.2,0.2,30.45,East,88,6.0,11.0,72,0.00,,,0.00,211,HR-IXPWINDi_r2_v1.2.,2013-02-20 14:45:00,
2013-02-20 08:50:00,7.6,0.6,30.44,East,82,2.0,11.0,72,0.00,,,0.00,221,HR-IXPWINDi_r2_v1.2.,2013-02-20 14:50:00,
2013-02-20 08:55:00,7.9,0.6,30.45,NE,45,4.0,9.0,71,0.00,,,0.00,218,HR-IXPWINDi_r2_v1.2.,2013-02-20 14:55:00,
2013-02-20 09:00:00,7.7,0.1,30.44,ESE,111,2.0,8.0,70,0.00,,,0.00,227,HR-IXPWINDi_r2_v1.2.,2013-02-20 15:00:00,
2013-02-20 09:06:00,8.0,0.4,30.44,ENE,69,4.0,9.0,70,0.00,,,0.00,236,HR-IXPWINDi_r2_v1.2.,2013-02-20 15:06:00,
2013-02-20 09:11:00,8.2,0.2,30.45,ENE,63,4.0,9.0,69,0.00,,,0.00,306,HR-IXPWINDi_r2_v1.2.,2013-02-20 15:11:00,
2013-02-20 09:16:00,9.1,1.1,30.45,East,92,2.0,8.0,69,0.00,,,0.00,371,HR-IXPWINDi_r2_v1.2.,2013-02-20 15:16:00,
2013-02-20 09:21:00,9.4,0.8,30.46,East,97,2.0,7.0,67,0.00,,,0.00,381,HR-IXPWINDi_r2_v1.2.,2013-02-20 15:21:00,
2013-02-20 09:26:00,9.9,0.9,30.46,ENE,57,4.0,10.0,66,0.00,,,0.00,345,HR-IXPWINDi_r2_v1.2.,2013-02-20 15:26:00,
2013-02-20 09:31:00,10.8,1.1,30.45,East,82,6.0,10.0,64,0.00,,,0.00,325,HR-IXPWINDi_r2_v1.2.,2013-02-20 15:31:00,
2013-02-20 09:36:00,10.8,0.4,30.45,ENE,74,4.0,7.0,62,0.00,,,0.00,381,HR-IXPWINDi_r2_v1.2.,2013-02-20 15:36:00,
2013-02-20 09:42:00,11.4,1.3,30.45,SSE,150,2.0,8.0,63,0.00,,,0.00,424,HR-IXPWINDi_r2_v1.2.,2013-02-20 15:42:00,
2013-02-20 09:47:00,11.5,1.1,30.45,East,101,3.0,8.0,62,0.00,,,0.00,432,HR-IXPWINDi_r2_v1.2.,2013-02-20 15:47:00,
2013-02-20 09:52:00,11.9,1.5,30.45,ENE,64,9.0,9.0,62,0.00,,,0.00,454,HR-IXPWINDi_r2_v1.2.,2013-02-20 15:52:00,
2013-02-20 09:57:00,12.7,1.9,30.45,ESE,113,1.0,9.0,61,0.00,,,0.00,306,HR-IXPWINDi_r2_v1.2.,2013-02-20 15:57:00,
2013-02-20 10:02:00,13.0,1.8,30.45,ESE,113,4.0,9.0,60,0.00,,,0.00,315,HR-IXPWINDi_r2_v1.2.,2013-02-20 16:02:00,
2013-02-20 10:08:00,12.5,1.0,30.45,ENE,77,4.0,8.0,59,0.00,,,0.00,287,HR-IXPWINDi_r2_v1.2.,2013-02-20 16:08:00,
2013-02-20 10:13:00,12.4,1.6,30.45,SE,126,3.0,8.0,61,0.00,,,0.00,294,HR-IXPWINDi_r2_v1.2.,2013-02-20 16:13:00,
2013-02-20 10:18:00,12.8,2.0,30.46,SE,133,2.0,8.0,61,0.00,,,0.00,313,HR-IXPWINDi_r2_v1.2.,2013-02-20 16:18:00,
2013-02-20 10:23:00,13.7,2.1,30.46,ENE,69,3.0,8.0,59,0.00,,,0.00,422,HR-IXPWINDi_r2_v1.2.,2013-02-20 16:23:00,
2013-02-20 10:28:00,14.1,2.5,30.46,ENE,71,3.0,7.0,59,0.00,,,0.00,422,HR-IXPWINDi_r2_v1.2.,2013-02-20 16:28:00,
2013-02-20 10:33:00,14.4,2.8,30.46,ENE,75,4.0,8.0,59,0.00,,,0.00,517,HR-IXPWINDi_r2_v1.2.,2013-02-20 16:33:00,
2013-02-20 10:39:00,14.7,2.3,30.46,East,82,6.0,8.0,57,0.00,,,0.00,394,HR-IXPWINDi_r2_v1.2.,2013-02-20 16:39:00,
2013-02-20 10:44:00,14.4,2.0,30.46,East,82,5.0,9.0,57,0.00,,,0.00,306,HR-IXPWINDi_r2_v1.2.,2013-02-20 16:44:00,
2013-02-20 10:49:00,14.5,2.1,30.46,East,88,2.0,9.0,57,0.00,,,0.00,281,HR-IXPWINDi_r2_v1.2.,2013-02-20 16:49:00,
2013-02-20 10:54:00,14.4,2.8,30.46,East,81,5.0,9.0,59,0.00,,,0.00,239,HR-IXPWINDi_r2_v1.2.,2013-02-20 16:54:00,
2013-02-20 10:59:00,15.3,3.3,30.46,East,88,6.0,9.0,58,0.00,,,0.00,218,HR-IXPWINDi_r2_v1.2.,2013-02-20 16:59:00,
2013-02-20 11:04:00,14.9,2.5,30.46,ENE,71,5.0,8.0,57,0.00,,,0.00,216,HR-IXPWINDi_r2_v1.2.,2013-02-20 17:04:00,
2013-02-20 11:10:00,15.1,3.1,30.46,ENE,68,4.0,8.0,58,0.00,,,0.00,206,HR-IXPWINDi_r2_v1.2.,2013-02-20 17:10:00,
2013-02-20 11:15:00,15.3,2.9,30.45,East,100,6.0,7.0,57,0.00,,,0.00,225,HR-IXPWINDi_r2_v1.2.,2013-02-20 17:15:00,
2013-02-20 11:20:00,15.3,3.3,30.45,ENE,78,4.0,8.0,58,0.00,,,0.00,236,HR-IXPWINDi_r2_v1.2.,2013-02-20 17:20:00,
2013-02-20 11:25:00,15.7,3.3,30.45,NE,51,3.0,8.0,57,0.00,,,0.00,246,HR-IXPWINDi_r2_v1.2.,2013-02-20 17:25:00,
2013-02-20 11:31:00,16.2,3.3,30.45,ENE,66,7.0,7.0,56,0.00,,,0.00,255,HR-IXPWINDi_r2_v1.2.,2013-02-20 17:31:00,
2013-02-20 11:36:00,16.1,3.6,30.44,SSE,150,0.0,7.0,57,0.00,,,0.00,295,HR-IXPWINDi_r2_v1.2.,2013-02-20 17:36:00,
2013-02-20 11:41:00,16.6,3.7,30.45,ENE,61,5.0,7.0,56,0.00,,,0.00,309,HR-IXPWINDi_r2_v1.2.,2013-02-20 17:41:00,
2013-02-20 11:46:00,16.8,3.9,30.45,ESE,107,2.0,8.0,56,0.00,,,0.00,272,HR-IXPWINDi_r2_v1.2.,2013-02-20 17:46:00,
2013-02-20 11:51:00,17.2,4.3,30.45,ESE,116,3.0,8.0,56,0.00,,,0.00,276,HR-IXPWINDi_r2_v1.2.,2013-02-20 17:51:00,
2013-02-20 11:57:00,17.5,4.2,30.45,SE,140,1.0,8.0,55,0.00,,,0.00,292,HR-IXPWINDi_r2_v1.2.,2013-02-20 17:57:00,
2013-02-20 12:02:00,18.2,4.8,30.45,East,88,2.0,7.0,55,0.00,,,0.00,283,HR-IXPWINDi_r2_v1.2.,2013-02-20 18:02:00,
2013-02-20 12:07:00,18.9,5.1,30.45,SE,140,0.0,5.0,54,0.00,,,0.00,288,HR-IXPWINDi_r2_v1.2.,2013-02-20 18:07:00,
2013-02-20 12:12:00,19.2,4.9,30.45,SE,129,0.0,5.0,53,0.00,,,0.00,283,HR-IXPWINDi_r2_v1.2.,2013-02-20 18:12:00,
2013-02-20 12:17:00,19.6,4.9,30.44,ESE,123,2.0,5.0,52,0.00,,,0.00,274,HR-IXPWINDi_r2_v1.2.,2013-02-20 18:17:00,
2013-02-20 12:23:00,19.7,5.0,30.44,ESE,103,2.0,4.0,52,0.00,,,0.00,267,HR-IXPWINDi_r2_v1.2.,2013-02-20 18:23:00,
2013-02-20 12:28:00,19.6,4.5,30.44,East,93,1.0,5.0,51,0.00,,,0.00,260,HR-IXPWINDi_r2_v1.2.,2013-02-20 18:28:00,
2013-02-20 12:33:00,19.3,4.6,30.43,East,93,1.0,5.0,52,0.00,,,0.00,272,HR-IXPWINDi_r2_v1.2.,2013-02-20 18:33:00,
2013-02-20 12:38:00,19.8,5.1,30.43,SE,138,2.0,4.0,52,0.00,,,0.00,301,HR-IXPWINDi_r2_v1.2.,2013-02-20 18:38:00,
2013-02-20 12:43:00,20.5,5.7,30.43,SE,130,3.0,4.0,52,0.00,,,0.00,322,HR-IXPWINDi_r2_v1.2.,2013-02-20 18:43:00,
2013-02-20 12:48:00,20.8,5.6,30.42,ESE,102,3.0,5.0,51,0.00,,,0.00,378,HR-IXPWINDi_r2_v1.2.,2013-02-20 18:48:00,
2013-02-20 12:54:00,21.2,6.0,30.42,SSE,150,0.0,5.0,51,0.00,,,0.00,387,HR-IXPWINDi_r2_v1.2.,2013-02-20 18:54:00,
2013-02-20 12:59:00,21.8,6.1,30.41,SE,133,1.0,8.0,50,0.00,,,0.00,390,HR-IXPWINDi_r2_v1.2.,2013-02-20 18:59:00,
2013-02-20 13:04:00,22.2,6.0,30.41,East,89,3.0,8.0,49,0.00,,,0.00,345,HR-IXPWINDi_r2_v1.2.,2013-02-20 19:04:00,
2013-02-20 13:09:00,21.1,5.0,30.40,ENE,73,1.0,7.0,49,0.00,,,0.00,350,HR-IXPWINDi_r2_v1.2.,2013-02-20 19:09:00,
2013-02-20 13:14:00,20.6,5.4,30.40,ESE,111,4.0,5.0,51,0.00,,,0.00,329,HR-IXPWINDi_r2_v1.2.,2013-02-20 19:14:00,
2013-02-20 13:20:00,21.5,5.8,30.39,ENE,78,3.0,6.0,50,0.00,,,0.00,294,HR-IXPWINDi_r2_v1.2.,2013-02-20 19:20:00,
2013-02-20 13:25:00,21.5,5.8,30.39,ESE,110,1.0,8.0,50,0.00,,,0.00,264,HR-IXPWINDi_r2_v1.2.,2013-02-20 19:25:00,
2013-02-20 13:30:00,21.4,5.7,30.39,ENE,78,5.0,8.0,50,0.00,,,0.00,241,HR-IXPWINDi_r2_v1.2.,2013-02-20 19:30:00,
2013-02-20 13:35:00,20.8,5.6,30.39,East,82,3.0,8.0,51,0.00,,,0.00,218,HR-IXPWINDi_r2_v1.2.,2013-02-20 19:35:00,
2013-02-20 13:41:00,21.4,6.1,30.38,East,87,1.0,7.0,51,0.00,,,0.00,200,HR-IXPWINDi_r2_v1.2.,2013-02-20 19:41:00,
2013-02-20 13:46:00,21.5,5.8,30.38,East,101,6.0,7.0,50,0.00,,,0.00,200,HR-IXPWINDi_r2_v1.2.,2013-02-20 19:46:00,
2013-02-20 13:51:00,21.0,5.8,30.37,East,82,3.0,7.0,51,0.00,,,0.00,207,HR-IXPWINDi_r2_v1.2.,2013-02-20 19:51:00,
2013-02-20 13:56:00,20.8,5.6,30.36,ENE,78,4.0,8.0,51,0.00,,,0.00,195,HR-IXPWINDi_r2_v1.2.,2013-02-20 19:56:00,
2013-02-20 14:01:00,20.8,5.6,30.36,NE,53,5.0,8.0,51,0.00,,,0.00,193,HR-IXPWINDi_r2_v1.2.,2013-02-20 20:01:00,
2013-02-20 14:06:00,20.8,6.0,30.35,ENE,63,4.0,9.0,52,0.00,,,0.00,220,HR-IXPWINDi_r2_v1.2.,2013-02-20 20:06:00,
2013-02-20 14:12:00,21.3,6.0,30.35,ENE,61,5.0,10.0,51,0.00,,,0.00,211,HR-IXPWINDi_r2_v1.2.,2013-02-20 20:12:00,
2013-02-20 14:17:00,21.1,5.9,30.35,NE,50,4.0,12.0,51,0.00,,,0.00,193,HR-IXPWINDi_r2_v1.2.,2013-02-20 20:17:00,
2013-02-20 14:22:00,21.1,5.9,30.34,East,86,5.0,12.0,51,0.00,,,0.00,197,HR-IXPWINDi_r2_v1.2.,2013-02-20 20:22:00,
2013-02-20 14:27:00,21.3,6.0,30.35,ESE,116,5.0,10.0,51,0.00,,,0.00,202,HR-IXPWINDi_r2_v1.2.,2013-02-20 20:27:00,
2013-02-20 14:32:00,21.5,6.2,30.35,ENE,77,2.0,10.0,51,0.00,,,0.00,197,HR-IXPWINDi_r2_v1.2.,2013-02-20 20:32:00,
2013-02-20 14:38:00,22.0,6.7,30.35,ENE,65,4.0,10.0,51,0.00,,,0.00,178,HR-IXPWINDi_r2_v1.2.,2013-02-20 20:38:00,
2013-02-20 14:43:00,22.4,6.6,30.35,NE,48,3.0,7.0,50,0.00,,,0.00,183,HR-IXPWINDi_r2_v1.2.,2013-02-20 20:43:00,
2013-02-20 14:48:00,22.2,6.4,30.35,ENE,67,7.0,9.0,50,0.00,,,0.00,179,HR-IXPWINDi_r2_v1.2.,2013-02-20 20:48:00,
2013-02-20 14:53:00,22.3,6.5,30.35,ESE,103,3.0,10.0,50,0.00,,,0.00,179,HR-IXPWINDi_r2_v1.2.,2013-02-20 20:53:00,
2013-02-20 14:59:00,22.5,5.8,30.35,NE,42,7.0,10.0,48,0.00,,,0.00,163,HR-IXPWINDi_r2_v1.2.,2013-02-20 20:59:00,
2013-02-20 15:04:00,22.5,6.3,30.35,East,98,3.0,9.0,49,0.00,,,0.00,144,HR-IXPWINDi_r2_v1.2.,2013-02-20 21:04:00,
2013-02-20 15:09:00,22.4,5.7,30.34,ENE,70,7.0,11.0,48,0.00,,,0.00,132,HR-IXPWINDi_r2_v1.2.,2013-02-20 21:09:00,
2013-02-20 15:14:00,22.5,5.8,30.34,East,86,5.0,11.0,48,0.00,,,0.00,123,HR-IXPWINDi_r2_v1.2.,2013-02-20 21:14:00,
2013-02-20 15:19:00,22.5,5.8,30.34,ENE,68,5.0,11.0,48,0.00,,,0.00,125,HR-IXPWINDi_r2_v1.2.,2013-02-20 21:19:00,
2013-02-20 15:24:00,22.8,6.1,30.34,ENE,61,3.0,11.0,48,0.00,,,0.00,114,HR-IXPWINDi_r2_v1.2.,2013-02-20 21:24:00,
2013-02-20 15:29:00,23.0,6.3,30.34,East,88,3.0,11.0,48,0.00,,,0.00,113,HR-IXPWINDi_r2_v1.2.,2013-02-20 21:29:00,
2013-02-20 15:34:00,23.0,6.3,30.34,East,84,5.0,11.0,48,0.00,,,0.00,116,HR-IXPWINDi_r2_v1.2.,2013-02-20 21:34:00,
2013-02-20 15:39:00,23.2,6.5,30.34,ENE,68,5.0,10.0,48,0.00,,,0.00,104,HR-IXPWINDi_r2_v1.2.,2013-02-20 21:39:00,
2013-02-20 15:44:00,23.4,6.7,30.34,ESE,115,2.0,8.0,48,0.00,,,0.00,97,HR-IXPWINDi_r2_v1.2.,2013-02-20 21:44:00,
2013-02-20 15:49:00,23.4,6.7,30.33,East,97,5.0,9.0,48,0.00,,,0.00,93,HR-IXPWINDi_r2_v1.2.,2013-02-20 21:49:00,
2013-02-20 15:55:00,23.7,6.9,30.33,ESE,102,2.0,9.0,48,0.00,,,0.00,90,HR-IXPWINDi_r2_v1.2.,2013-02-20 21:55:00,
2013-02-20 16:00:00,24.0,6.7,30.33,ENE,78,5.0,7.0,47,0.00,,,0.00,81,HR-IXPWINDi_r2_v1.2.,2013-02-20 22:00:00,
2013-02-20 16:05:00,23.7,6.5,30.33,ESE,110,5.0,9.0,47,0.00,,,0.00,74,HR-IXPWINDi_r2_v1.2.,2013-02-20 22:05:00,
2013-02-20 16:10:00,23.5,6.8,30.33,ENE,75,4.0,9.0,48,0.00,,,0.00,70,HR-IXPWINDi_r2_v1.2.,2013-02-20 22:10:00,
2013-02-20 16:15:00,23.7,6.9,30.33,ENE,77,5.0,8.0,48,0.00,,,0.00,76,HR-IXPWINDi_r2_v1.2.,2013-02-20 22:15:00,
2013-02-20 16:20:00,24.0,6.7,30.33,ENE,58,5.0,8.0,47,0.00,,,0.00,72,HR-IXPWINDi_r2_v1.2.,2013-02-20 22:20:00,
2013-02-20 16:26:00,23.9,6.7,30.32,East,81,5.0,9.0,47,0.00,,,0.00,67,HR-IXPWINDi_r2_v1.2.,2013-02-20 22:26:00,
2013-02-20 16:31:00,24.1,6.8,30.32,East,94,7.0,10.0,47,0.00,,,0.00,67,HR-IXPWINDi_r2_v1.2.,2013-02-20 22:31:00,
2013-02-20 16:36:00,24.2,6.9,30.32,East,88,2.0,10.0,47,0.00,,,0.00,70,HR-IXPWINDi_r2_v1.2.,2013-02-20 22:36:00,
2013-02-20 16:42:00,24.4,7.1,30.32,NE,51,6.0,10.0,47,0.00,,,0.00,70,HR-IXPWINDi_r2_v1.2.,2013-02-20 22:42:00,
2013-02-20 16:47:00,24.4,7.1,30.31,NE,55,6.0,10.0,47,0.00,,,0.00,70,HR-IXPWINDi_r2_v1.2.,2013-02-20 22:47:00,
2013-02-20 16:53:00,24.4,7.1,30.31,ENE,59,3.0,9.0,47,0.00,,,0.00,70,HR-IXPWINDi_r2_v1.2.,2013-02-20 22:53:00,
2013-02-20 16:58:00,24.6,7.3,30.31,East,82,2.0,9.0,47,0.00,,,0.00,65,HR-IXPWINDi_r2_v1.2.,2013-02-20 22:58:00,
2013-02-20 17:03:00,24.8,7.0,30.31,East,94,6.0,7.0,46,0.00,,,0.00,53,HR-IXPWINDi_r2_v1.2.,2013-02-20 23:03:00,
2013-02-20 17:08:00,24.6,6.3,30.31,ENE,72,4.0,10.0,45,0.00,,,0.00,42,HR-IXPWINDi_r2_v1.2.,2013-02-20 23:08:00,
2013-02-20 17:14:00,24.6,6.8,30.31,ENE,74,4.0,10.0,46,0.00,,,0.00,39,HR-IXPWINDi_r2_v1.2.,2013-02-20 23:14:00,
2013-02-20 17:19:00,24.7,6.9,30.30,ENE,69,4.0,8.0,46,0.00,,,0.00,44,HR-IXPWINDi_r2_v1.2.,2013-02-20 23:19:00,
2013-02-20 17:24:00,24.8,6.5,30.30,East,90,5.0,9.0,45,0.00,,,0.00,44,HR-IXPWINDi_r2_v1.2.,2013-02-20 23:24:00,
2013-02-20 17:29:00,24.8,6.5,30.30,East,86,6.0,10.0,45,0.00,,,0.00,39,HR-IXPWINDi_r2_v1.2.,2013-02-20 23:29:00,
2013-02-20 17:35:00,24.9,6.6,30.30,East,82,6.0,10.0,45,0.00,,,0.00,32,HR-IXPWINDi_r2_v1.2.,2013-02-20 23:35:00,
2013-02-20 17:40:00,24.9,6.6,30.30,East,82,3.0,12.0,45,0.00,,,0.00,23,HR-IXPWINDi_r2_v1.2.,2013-02-20 23:40:00,
2013-02-20 17:45:00,24.9,6.6,30.30,ENE,76,5.0,12.0,45,0.00,,,0.00,16,HR-IXPWINDi_r2_v1.2.,2013-02-20 23:45:00,
2013-02-20 17:50:00,24.8,6.5,30.30,ENE,69,10.0,10.0,45,0.00,,,0.00,12,HR-IXPWINDi_r2_v1.2.,2013-02-20 23:50:00,
2013-02-20 17:56:00,24.8,6.5,30.30,ENE,73,4.0,10.0,45,0.00,,,0.00,7,HR-IXPWINDi_r2_v1.2.,2013-02-20 23:56:00,
2013-02-20 18:01:00,24.8,6.5,30.30,ESE,112,2.0,10.0,45,0.00,,,0.00,0,HR-IXPWINDi_r2_v1.2.,2013-02-21 00:01:00,
2013-02-20 18:06:00,24.8,6.5,30.30,East,88,5.0,9.0,45,0.00,,,0.00,0,HR-IXPWINDi_r2_v1.2.,2013-02-21 00:06:00,
2013-02-20 18:11:00,24.8,6.5,30.30,East,84,5.0,8.0,45,0.00,,,0.00,0,HR-IXPWINDi_r2_v1.2.,2013-02-21 00:11:00,
2013-02-20 18:17:00,24.9,7.1,30.30,ENE,75,2.0,8.0,46,0.00,,,0.00,0,HR-IXPWINDi_r2_v1.2.,2013-02-21 00:17:00,
2013-02-20 18:22:00,24.9,7.1,30.30,East,94,3.0,8.0,46,0.00,,,0.00,0,HR-IXPWINDi_r2_v1.2.,2013-02-21 00:22:00,
2013-02-20 18:27:00,24.9,7.1,30.30,East,96,3.0,7.0,46,0.00,,,0.00,0,HR-IXPWINDi_r2_v1.2.,2013-02-21 00:27:00,
2013-02-20 18:32:00,24.9,7.1,30.30,ENE,68,4.0,7.0,46,0.00,,,0.00,0,HR-IXPWINDi_r2_v1.2.,2013-02-21 00:32:00,
2013-02-20 18:37:00,24.8,6.5,30.30,East,101,5.0,8.0,45,0.00,,,0.00,0,HR-IXPWINDi_r2_v1.2.,2013-02-21 00:37:00,
2013-02-20 18:42:00,24.7,6.9,30.30,East,82,5.0,8.0,46,0.00,,,0.00,0,HR-IXPWINDi_r2_v1.2.,2013-02-21 00:42:00,
2013-02-20 18:47:00,24.7,6.9,30.30,East,95,5.0,8.0,46,0.00,,,0.00,0,HR-IXPWINDi_r2_v1.2.,2013-02-21 00:47:00,
2013-02-20 18:52:00,24.7,6.9,30.30,ESE,105,2.0,8.0,46,0.00,,,0.00,0,HR-IXPWINDi_r2_v1.2.,2013-02-21 00:52:00,
2013-02-20 18:58:00,24.6,6.8,30.30,ENE,72,5.0,8.0,46,0.00,,,0.00,0,HR-IXPWINDi_r2_v1.2.,2013-02-21 00:58:00,
2013-02-20 19:03:00,24.6,6.8,30.30,ENE,68,4.0,9.0,46,0.00,,,0.00,0,HR-IXPWINDi_r2_v1.2.,2013-02-21 01:03:00,
2013-02-20 19:08:00,24.6,6.8,30.30,NE,55,6.0,9.0,46,0.00,,,0.00,0,HR-IXPWINDi_r2_v1.2.,2013-02-21 01:08:00,
2013-02-20 19:13:00,24.6,6.8,30.29,ENE,69,5.0,9.0,46,0.00,,,0.00,0,HR-IXPWINDi_r2_v1.2.,2013-02-21 01:13:00,
2013-02-20 19:18:00,24.6,7.3,30.29,ENE,65,4.0,8.0,47,0.00,,,0.00,0,HR-IXPWINDi_r2_v1.2.,2013-02-21 01:18:00,
2013-02-20 19:23:00,24.5,7.2,30.29,ESE,115,2.0,8.0,47,0.00,,,0.00,0,HR-IXPWINDi_r2_v1.2.,2013-02-21 01:23:00,
2013-02-20 19:29:00,24.5,7.2,30.29,ENE,71,2.0,8.0,47,0.00,,,0.00,0,HR-IXPWINDi_r2_v1.2.,2013-02-21 01:29:00,
2013-02-20 19:34:00,24.4,7.1,30.29,ENE,64,5.0,9.0,47,0.00,,,0.00,0,HR-IXPWINDi_r2_v1.2.,2013-02-21 01:34:00,
2013-02-20 19:39:00,24.4,7.1,30.29,NE,55,3.0,10.0,47,0.00,,,0.00,0,HR-IXPWINDi_r2_v1.2.,2013-02-21 01:39:00,
2013-02-20 19:44:00,24.4,7.1,30.29,ENE,68,7.0,10.0,47,0.00,,,0.00,0,HR-IXPWINDi_r2_v1.2.,2013-02-21 01:44:00,
2013-02-20 19:49:00,24.4,7.1,30.28,ENE,71,3.0,10.0,47,0.00,,,0.00,0,HR-IXPWINDi_r2_v1.2.,2013-02-21 01:49:00,
2013-02-20 19:54:00,24.3,7.0,30.28,ENE,71,10.0,10.0,47,0.00,,,0.00,0,HR-IXPWINDi_r2_v1.2.,2013-02-21 01:54:00,
2013-02-20 20:00:00,24.3,7.0,30.28,ENE,75,11.0,13.0,47,0.00,,,0.00,0,HR-IXPWINDi_r2_v1.2.,2013-02-21 02:00:00,
2013-02-20 20:05:00,24.3,7.0,30.29,ENE,75,5.0,13.0,47,0.00,,,0.00,0,HR-IXPWINDi_r2_v1.2.,2013-02-21 02:05:00,
2013-02-20 20:10:00,24.2,6.9,30.29,East,82,6.0,13.0,47,0.00,,,0.00,0,HR-IXPWINDi_r2_v1.2.,2013-02-21 02:10:00,
2013-02-20 20:15:00,24.2,6.9,30.28,East,95,5.0,13.0,47,0.00,,,0.00,0,HR-IXPWINDi_r2_v1.2.,2013-02-21 02:15:00,
2013-02-20 20:20:00,24.1,6.8,30.29,East,82,7.0,13.0,47,0.00,,,0.00,0,HR-IXPWINDi_r2_v1.2.,2013-02-21 02:20:00,
2013-02-20 20:25:00,24.1,7.3,30.28,ENE,74,5.0,11.0,48,0.00,,,0.00,0,HR-IXPWINDi_r2_v1.2.,2013-02-21 02:25:00,
2013-02-20 20:31:00,24.1,7.3,30.29,ENE,69,9.0,11.0,48,0.00,,,0.00,0,HR-IXPWINDi_r2_v1.2.,2013-02-21 02:31:00,
2013-02-20 20:36:00,24.0,7.2,30.29,East,82,6.0,10.0,48,0.00,,,0.00,0,HR-IXPWINDi_r2_v1.2.,2013-02-21 02:36:00,
2013-02-20 20:41:00,24.0,7.2,30.30,East,96,5.0,9.0,48,0.00,,,0.00,0,HR-IXPWINDi_r2_v1.2.,2013-02-21 02:41:00,
2013-02-20 20:46:00,24.0,7.7,30.30,ENE,61,5.0,9.0,49,0.00,,,0.00,0,HR-IXPWINDi_r2_v1.2.,2013-02-21 02:46:00,
2013-02-20 20:51:00,24.0,7.7,30.30,East,92,3.0,9.0,49,0.00,,,0.00,0,HR-IXPWINDi_r2_v1.2.,2013-02-21 02:51:00,
2013-02-20 20:57:00,24.0,7.7,30.29,ENE,67,4.0,9.0,49,0.00,,,0.00,0,HR-IXPWINDi_r2_v1.2.,2013-02-21 02:57:00,
2013-02-20 21:02:00,23.9,7.6,30.30,ENE,76,3.0,10.0,49,0.00,,,0.00,0,HR-IXPWINDi_r2_v1.2.,2013-02-21 03:02:00,
2013-02-20 21:07:00,23.9,7.6,30.30,ENE,67,5.0,10.0,49,0.00,,,0.00,0,HR-IXPWINDi_r2_v1.2.,2013-02-21 03:07:00,
2013-02-20 21:12:00,23.8,7.5,30.29,ENE,76,4.0,9.0,49,0.00,,,0.00,0,HR-IXPWINDi_r2_v1.2.,2013-02-21 03:12:00,
2013-02-20 21:17:00,23.8,7.5,30.29,East,88,5.0,11.0,49,0.00,,,0.00,0,HR-IXPWINDi_r2_v1.2.,2013-02-21 03:17:00,
2013-02-20 21:22:00,23.8,7.9,30.29,ENE,74,5.0,11.0,50,0.00,,,0.00,0,HR-IXPWINDi_r2_v1.2.,2013-02-21 03:22:00,
2013-02-20 21:27:00,23.7,7.8,30.29,ENE,67,8.0,13.0,50,0.00,,,0.00,0,HR-IXPWINDi_r2_v1.2.,2013-02-21 03:27:00,
2013-02-20 21:32:00,23.6,7.7,30.29,East,97,7.0,13.0,50,0.00,,,0.00,0,HR-IXPWINDi_r2_v1.2.,2013-02-21 03:32:00,
2013-02-20 21:38:00,23.5,8.1,30.29,ESE,103,5.0,15.0,51,0.00,,,0.00,0,HR-IXPWINDi_r2_v1.2.,2013-02-21 03:38:00,
2013-02-20 21:43:00,23.5,8.1,30.29,ENE,67,5.0,15.0,51,0.00,,,0.00,0,HR-IXPWINDi_r2_v1.2.,2013-02-21 03:43:00,
2013-02-20 21:48:00,23.5,8.1,30.30,ENE,74,4.0,11.0,51,0.00,,,0.00,0,HR-IXPWINDi_r2_v1.2.,2013-02-21 03:48:00,
2013-02-20 21:53:00,23.5,8.1,30.30,ENE,77,4.0,9.0,51,0.00,,,0.00,0,HR-IXPWINDi_r2_v1.2.,2013-02-21 03:53:00,
2013-02-20 21:59:00,23.4,8.0,30.31,ENE,76,5.0,12.0,51,0.00,,,0.00,0,HR-IXPWINDi_r2_v1.2.,2013-02-21 03:59:00,
2013-02-20 22:04:00,23.4,8.0,30.31,East,79,6.0,12.0,51,0.00,,,0.00,0,HR-IXPWINDi_r2_v1.2.,2013-02-21 04:04:00,
2013-02-20 22:09:00,23.3,7.9,30.31,East,81,5.0,11.0,51,0.00,,,0.00,0,HR-IXPWINDi_r2_v1.2.,2013-02-21 04:09:00,
2013-02-20 22:14:00,23.3,7.9,30.31,East,84,2.0,11.0,51,0.00,,,0.00,0,HR-IXPWINDi_r2_v1.2.,2013-02-21 04:14:00,
2013-02-20 22:19:00,23.4,8.4,30.31,East,82,7.0,10.0,52,0.00,,,0.00,0,HR-IXPWINDi_r2_v1.2.,2013-02-21 04:19:00,
2013-02-20 22:24:00,23.3,8.3,30.32,East,91,3.0,8.0,52,0.00,,,0.00,0,HR-IXPWINDi_r2_v1.2.,2013-02-21 04:24:00,
2013-02-20 22:30:00,23.3,8.3,30.31,ESE,111,2.0,9.0,52,0.00,,,0.00,0,HR-IXPWINDi_r2_v1.2.,2013-02-21 04:30:00,
2013-02-20 22:35:00,23.3,7.9,30.31,East,80,5.0,9.0,51,0.00,,,0.00,0,HR-IXPWINDi_r2_v1.2.,2013-02-21 04:35:00,
2013-02-20 22:40:00,23.2,8.2,30.32,East,81,3.0,9.0,52,0.00,,,0.00,0,HR-IXPWINDi_r2_v1.2.,2013-02-21 04:40:00,
2013-02-20 22:45:00,23.1,8.1,30.31,East,79,5.0,12.0,52,0.00,,,0.00,0,HR-IXPWINDi_r2_v1.2.,2013-02-21 04:45:00,
2013-02-20 22:51:00,23.0,8.5,30.31,East,83,7.0,12.0,53,0.00,,,0.00,0,HR-IXPWINDi_r2_v1.2.,2013-02-21 04:51:00,
2013-02-20 22:56:00,22.8,8.3,30.32,East,81,9.0,11.0,53,0.00,,,0.00,0,HR-IXPWINDi_r2_v1.2.,2013-02-21 04:56:00,
2013-02-20 23:00:00,22.8,8.3,30.32,NE,44,6.0,11.0,53,0.00,,,0.00,0,HR-IXPWINDi_r2_v1.2.,2013-02-21 05:00:00,
2013-02-20 23:05:00,22.7,8.2,30.31,ENE,74,5.0,11.0,53,0.00,,,0.00,0,HR-IXPWINDi_r2_v1.2.,2013-02-21 05:05:00,
2013-02-20 23:10:00,22.6,8.5,30.31,NE,54,6.0,9.0,54,0.00,,,0.00,0,HR-IXPWINDi_r2_v1.2.,2013-02-21 05:10:00,
2013-02-20 23:15:00,22.5,8.4,30.31,East,92,5.0,9.0,54,0.00,,,0.00,0,HR-IXPWINDi_r2_v1.2.,2013-02-21 05:15:00,
2013-02-20 23:20:00,22.4,8.3,30.31,ENE,63,3.0,11.0,54,0.00,,,0.00,0,HR-IXPWINDi_r2_v1.2.,2013-02-21 05:20:00,
2013-02-20 23:25:00,22.4,8.3,30.30,ENE,77,2.0,11.0,54,0.00,,,0.00,0,HR-IXPWINDi_r2_v1.2.,2013-02-21 05:25:00,
2013-02-20 23:30:00,22.3,8.6,30.30,East,82,8.0,11.0,55,0.00,,,0.00,0,HR-IXPWINDi_r2_v1.2.,2013-02-21 05:30:00,
2013-02-20 23:35:00,22.4,8.7,30.29,NE,50,5.0,11.0,55,0.00,,,0.00,0,HR-IXPWINDi_r2_v1.2.,2013-02-21 05:35:00,
2013-02-20 23:41:00,22.3,8.6,30.29,NNE,26,6.0,10.0,55,0.00,,,0.00,0,HR-IXPWINDi_r2_v1.2.,2013-02-21 05:41:00,
2013-02-20 23:46:00,22.2,8.5,30.29,NE,43,6.0,10.0,55,0.00,,,0.00,0,HR-IXPWINDi_r2_v1.2.,2013-02-21 05:46:00,
2013-02-20 23:51:00,22.1,8.4,30.29,ENE,69,9.0,12.0,55,0.00,,,0.00,0,HR-IXPWINDi_r2_v1.2.,2013-02-21 05:51:00,
2013-02-20 23:56:00,22.1,8.4,30.29,ENE,71,3.0,12.0,55,0.00,,,0.00,0,HR-IXPWINDi_r2_v1.2.,2013-02-21 05:56:00,